Time;durP1;ratioP1;P1;durP2;ratioP2;P2;SDS_P1;SDS_P2;PMS_P1;PMS_P2;Temp;Humidity;BMP_temperature;BMP_pressure;BME280_temperature;BME280_humidity;BME280_pressure;Samples;Min_cycle;Max_cycle;Signal;HPM_P1;HPM_P2
2021/09/10 00:01:51;;;;;;;43.93;38.20;;;;;;;;;;4965169;28;20182;-82
2021/09/10 00:04:17;;;;;;;46.40;36.80;;;;;;;;;;4965830;28;20190;-82
2021/09/10 00:06:42;;;;;;;46.17;36.67;;;;;;;;;;4962830;28;20202;-82
2021/09/10 00:09:07;;;;;;;50.33;37.60;;;;;;;;;;4961683;28;20199;-82
2021/09/10 00:11:33;;;;;;;46.43;36.57;;;;;;;;;;4970123;28;20245;-82
2021/09/10 00:13:58;;;;;;;50.33;41.30;;;;;;;;;;4964626;28;20184;-82
2021/09/10 00:16:24;;;;;;;43.23;34.47;;;;;;;;;;4964216;28;20191;-82
2021/09/10 00:18:49;;;;;;;43.10;35.93;;;;;;;;;;4962767;28;20214;-82
2021/09/10 00:21:14;;;;;;;40.67;33.30;;;;;;;;;;4964949;28;20240;-82
2021/09/10 00:23:40;;;;;;;38.00;33.17;;;;;;;;;;4962672;28;20789;-82
2021/09/10 00:26:05;;;;;;;42.30;35.00;;;;;;;;;;4963677;28;20234;-82
2021/09/10 00:28:33;;;;;;;40.80;33.77;;;;;;;;;;4963377;28;20632;-82
2021/09/10 00:30:58;;;;;;;41.37;33.77;;;;;;;;;;4965151;28;20186;-83
2021/09/10 00:33:23;;;;;;;45.20;35.43;;;;;;;;;;4963663;28;20437;-83
2021/09/10 00:35:49;;;;;;;42.50;35.37;;;;;;;;;;4962830;28;20182;-83
2021/09/10 00:38:14;;;;;;;52.03;35.67;;;;;;;;;;4964742;28;20233;-83
2021/09/10 00:40:39;;;;;;;47.63;36.57;;;;;;;;;;4965750;28;20635;-83
2021/09/10 00:43:04;;;;;;;43.73;36.47;;;;;;;;;;4964163;28;20190;-83
2021/09/10 00:45:30;;;;;;;44.87;36.70;;;;;;;;;;4962833;28;20256;-83
2021/09/10 00:47:56;;;;;;;47.30;37.93;;;;;;;;;;4963568;28;20213;-83
2021/09/10 00:50:21;;;;;;;43.87;38.00;;;;;;;;;;4963213;28;20193;-83
2021/09/10 00:52:47;;;;;;;42.00;36.50;;;;;;;;;;4963311;28;20418;-83
2021/09/10 00:55:12;;;;;;;45.70;36.80;;;;;;;;;;4962187;28;20314;-83
2021/09/10 00:57:37;;;;;;;43.20;35.43;;;;;;;;;;4964005;28;20201;-83
2021/09/10 01:00:04;;;;;;;41.10;34.30;;;;;;;;;;4963588;28;20265;-83
2021/09/10 01:02:29;;;;;;;39.80;34.27;;;;;;;;;;4965249;28;20178;-83
2021/09/10 01:04:54;;;;;;;36.20;32.00;;;;;;;;;;4963728;28;20469;-83
2021/09/10 01:07:20;;;;;;;38.00;30.83;;;;;;;;;;4963165;28;20900;-83
2021/09/10 01:09:45;;;;;;;39.70;32.90;;;;;;;;;;4962106;28;20182;-83
2021/09/10 01:12:11;;;;;;;36.53;31.80;;;;;;;;;;4962217;28;20561;-81
2021/09/10 01:14:36;;;;;;;38.30;32.50;;;;;;;;;;4963953;28;20556;-81
2021/09/10 01:17:01;;;;;;;36.03;31.03;;;;;;;;;;4962672;28;20187;-81
2021/09/10 01:19:28;;;;;;;39.63;30.87;;;;;;;;;;4962831;28;20183;-81
2021/09/10 01:21:55;;;;;;;45.23;29.23;;;;;;;;;;4963739;28;20265;-81
2021/09/10 01:24:25;;;;;;;40.40;32.13;;;;;;;;;;4963977;28;20502;-81
2021/09/10 01:26:50;;;;;;;38.07;30.77;;;;;;;;;;4964030;28;20430;-81
2021/09/10 01:29:15;;;;;;;38.03;32.60;;;;;;;;;;4963907;28;20446;-82
2021/09/10 01:31:41;;;;;;;40.33;33.67;;;;;;;;;;4963465;28;20230;-83
2021/09/10 01:34:06;;;;;;;40.57;32.57;;;;;;;;;;4961459;28;20285;-82
2021/09/10 01:36:31;;;;;;;37.93;31.23;;;;;;;;;;4964647;28;20664;-82
2021/09/10 01:38:57;;;;;;;39.27;32.53;;;;;;;;;;4962034;28;20908;-82
2021/09/10 01:41:22;;;;;;;44.40;38.50;;;;;;;;;;4962604;28;20182;-80
2021/09/10 01:43:47;;;;;;;48.83;39.43;;;;;;;;;;4960111;28;20270;-83
2021/09/10 01:46:12;;;;;;;46.43;41.37;;;;;;;;;;4958267;28;20289;-83
2021/09/10 01:48:37;;;;;;;47.47;41.43;;;;;;;;;;4966896;28;20198;-83
2021/09/10 01:51:03;;;;;;;49.40;41.47;;;;;;;;;;4961040;28;20175;-83
2021/09/10 01:53:31;;;;;;;48.70;42.87;;;;;;;;;;4960729;28;20655;-83
2021/09/10 01:55:57;;;;;;;52.63;44.80;;;;;;;;;;4956998;28;20214;-83
2021/09/10 01:58:22;;;;;;;52.53;43.90;;;;;;;;;;4955144;28;20492;-84
2021/09/10 02:00:48;;;;;;;49.13;41.90;;;;;;;;;;4962803;28;20198;-83
2021/09/10 02:03:13;;;;;;;47.70;41.20;;;;;;;;;;4962266;28;20633;-83
2021/09/10 02:05:38;;;;;;;46.37;40.20;;;;;;;;;;4959879;28;20466;-83
2021/09/10 02:08:04;;;;;;;46.67;41.30;;;;;;;;;;4961185;28;20222;-83
2021/09/10 02:10:29;;;;;;;50.00;42.47;;;;;;;;;;4960771;28;20272;-84
2021/09/10 02:12:54;;;;;;;49.00;43.03;;;;;;;;;;4961749;28;20183;-85
2021/09/10 02:15:19;;;;;;;48.67;43.37;;;;;;;;;;4968626;28;20182;-83
2021/09/10 02:17:45;;;;;;;51.17;41.67;;;;;;;;;;4958465;28;20212;-84
2021/09/10 02:20:10;;;;;;;48.50;41.93;;;;;;;;;;4961491;28;20210;-84
2021/09/10 02:22:35;;;;;;;49.30;41.83;;;;;;;;;;4959634;28;20195;-84
2021/09/10 02:25:01;;;;;;;48.17;42.30;;;;;;;;;;4968785;28;20306;-84
2021/09/10 02:27:26;;;;;;;47.67;38.27;;;;;;;;;;4961143;28;20781;-84
2021/09/10 02:29:51;;;;;;;50.37;41.07;;;;;;;;;;4960200;28;20178;-84
2021/09/10 02:32:16;;;;;;;51.57;42.67;;;;;;;;;;4961718;28;20186;-84
2021/09/10 02:34:42;;;;;;;51.30;41.07;;;;;;;;;;4961151;28;20196;-84
2021/09/10 02:37:07;;;;;;;49.97;41.60;;;;;;;;;;4959282;28;20203;-84
2021/09/10 02:39:32;;;;;;;47.70;40.97;;;;;;;;;;4960800;28;20246;-84
2021/09/10 02:41:57;;;;;;;46.07;41.03;;;;;;;;;;4960681;28;20193;-84
2021/09/10 02:44:23;;;;;;;51.70;41.70;;;;;;;;;;4960390;28;20186;-84
2021/09/10 02:46:48;;;;;;;45.13;38.93;;;;;;;;;;4964806;28;20186;-84
2021/09/10 02:49:13;;;;;;;41.23;36.73;;;;;;;;;;4962715;28;20190;-84
2021/09/10 02:51:38;;;;;;;44.67;37.70;;;;;;;;;;4960524;28;20183;-84
2021/09/10 02:54:04;;;;;;;42.13;36.53;;;;;;;;;;4965703;28;20182;-84
2021/09/10 02:56:29;;;;;;;42.43;37.60;;;;;;;;;;4961777;28;20178;-84
2021/09/10 02:58:54;;;;;;;45.27;38.70;;;;;;;;;;4963792;28;20218;-84
2021/09/10 03:01:20;;;;;;;44.53;39.80;;;;;;;;;;4963232;28;20186;-84
2021/09/10 03:03:45;;;;;;;45.33;40.40;;;;;;;;;;4963531;28;20211;-84
2021/09/10 03:06:10;;;;;;;43.10;36.67;;;;;;;;;;4962987;28;20211;-84
2021/09/10 03:08:36;;;;;;;39.33;35.03;;;;;;;;;;4962464;28;20203;-85
2021/09/10 03:11:01;;;;;;;41.03;36.43;;;;;;;;;;4965048;28;20233;-84
2021/09/10 03:13:26;;;;;;;45.03;38.23;;;;;;;;;;4970716;28;20652;-85
2021/09/10 03:15:51;;;;;;;42.00;33.50;;;;;;;;;;4960988;28;20191;-84
2021/09/10 03:18:17;;;;;;;42.53;34.80;;;;;;;;;;4964870;28;20222;-84
2021/09/10 03:20:43;;;;;;;46.20;35.97;;;;;;;;;;4963523;28;20655;-84
2021/09/10 03:23:08;;;;;;;40.90;35.83;;;;;;;;;;4964774;28;20258;-84
2021/09/10 03:25:34;;;;;;;41.47;34.43;;;;;;;;;;4963790;28;20973;-84
2021/09/10 03:27:59;;;;;;;45.30;35.07;;;;;;;;;;4962952;28;20245;-84
2021/09/10 03:30:24;;;;;;;39.83;35.43;;;;;;;;;;4962374;28;20175;-84
2021/09/10 03:32:50;;;;;;;43.27;34.00;;;;;;;;;;4962803;28;20187;-83
2021/09/10 03:35:15;;;;;;;40.03;32.93;;;;;;;;;;4964291;28;20210;-84
2021/09/10 03:37:40;;;;;;;38.17;33.20;;;;;;;;;;4970307;28;20215;-84
2021/09/10 03:40:06;;;;;;;39.90;33.60;;;;;;;;;;4964225;28;20186;-84
2021/09/10 03:42:31;;;;;;;34.23;29.73;;;;;;;;;;4963040;28;20198;-84
2021/09/10 03:44:57;;;;;;;39.23;31.40;;;;;;;;;;4963734;28;20251;-83
2021/09/10 03:47:22;;;;;;;37.20;31.40;;;;;;;;;;4971352;28;20202;-84
2021/09/10 03:49:47;;;;;;;39.43;33.47;;;;;;;;;;4963073;28;20661;-83
2021/09/10 03:52:13;;;;;;;39.77;34.00;;;;;;;;;;4963238;28;20210;-84
2021/09/10 03:54:38;;;;;;;39.80;34.30;;;;;;;;;;4968695;28;20193;-84
2021/09/10 03:57:03;;;;;;;39.63;33.80;;;;;;;;;;4960738;28;20195;-84
2021/09/10 03:59:29;;;;;;;42.40;35.17;;;;;;;;;;4963317;28;20187;-84
2021/09/10 04:01:54;;;;;;;42.57;35.70;;;;;;;;;;4962165;28;20175;-85
2021/09/10 04:04:19;;;;;;;42.30;33.63;;;;;;;;;;4962984;28;20190;-84
2021/09/10 04:06:44;;;;;;;39.67;35.37;;;;;;;;;;4962414;28;20223;-84
2021/09/10 04:09:10;;;;;;;35.90;30.70;;;;;;;;;;4960080;28;20183;-84
2021/09/10 04:11:37;;;;;;;37.70;29.90;;;;;;;;;;4960875;28;20194;-84
2021/09/10 04:14:02;;;;;;;34.37;30.73;;;;;;;;;;4961758;28;20563;-84
2021/09/10 04:16:27;;;;;;;36.10;31.10;;;;;;;;;;4962594;28;20438;-85
2021/09/10 04:18:53;;;;;;;34.90;29.90;;;;;;;;;;4963375;28;20564;-84
2021/09/10 04:21:18;;;;;;;35.20;30.93;;;;;;;;;;4964970;28;20276;-84
2021/09/10 04:23:43;;;;;;;34.40;29.70;;;;;;;;;;4970490;28;20220;-85
2021/09/10 04:26:08;;;;;;;31.93;28.63;;;;;;;;;;4963275;28;20207;-84
2021/09/10 04:28:33;;;;;;;32.33;28.07;;;;;;;;;;4963477;28;20203;-85
2021/09/10 04:30:59;;;;;;;31.87;28.57;;;;;;;;;;4964952;28;20190;-84
2021/09/10 04:33:24;;;;;;;33.70;28.40;;;;;;;;;;4963947;28;20190;-84
2021/09/10 04:35:49;;;;;;;31.90;28.40;;;;;;;;;;4963912;28;20656;-86
2021/09/10 04:38:15;;;;;;;27.80;24.90;;;;;;;;;;4963285;28;20205;-85
2021/09/10 04:40:40;;;;;;;28.17;25.03;;;;;;;;;;4963387;28;20187;-84
2021/09/10 04:43:06;;;;;;;30.80;27.43;;;;;;;;;;4963362;28;20186;-84
2021/09/10 04:45:31;;;;;;;28.00;25.20;;;;;;;;;;4962718;28;20202;-85
2021/09/10 04:47:56;;;;;;;30.37;25.67;;;;;;;;;;4962255;28;20198;-84
2021/09/10 04:50:21;;;;;;;30.00;26.80;;;;;;;;;;4964284;28;20262;-84
2021/09/10 04:52:47;;;;;;;28.13;25.23;;;;;;;;;;4963599;28;20553;-84
2021/09/10 04:55:12;;;;;;;27.97;25.10;;;;;;;;;;4963444;28;20207;-84
2021/09/10 04:57:37;;;;;;;29.53;26.30;;;;;;;;;;4963306;28;20205;-84
2021/09/10 05:00:03;;;;;;;29.90;26.77;;;;;;;;;;4962420;28;20194;-84
2021/09/10 05:02:29;;;;;;;30.07;26.80;;;;;;;;;;4970223;28;20250;-84
2021/09/10 05:04:54;;;;;;;29.70;26.60;;;;;;;;;;4962238;28;20462;-84
2021/09/10 05:07:19;;;;;;;29.93;25.10;;;;;;;;;;4969001;28;20203;-84
2021/09/10 05:09:44;;;;;;;30.03;24.80;;;;;;;;;;4963756;28;20253;-84
2021/09/10 05:12:10;;;;;;;28.27;24.10;;;;;;;;;;4961705;28;20182;-85
2021/09/10 05:14:35;;;;;;;28.40;24.17;;;;;;;;;;4960869;28;20188;-84
2021/09/10 05:17:00;;;;;;;29.20;25.20;;;;;;;;;;4962221;28;20214;-84
2021/09/10 05:19:25;;;;;;;26.53;23.73;;;;;;;;;;4962342;28;20187;-84
2021/09/10 05:21:51;;;;;;;25.47;22.80;;;;;;;;;;4961874;28;20182;-84
2021/09/10 05:24:16;;;;;;;27.23;23.07;;;;;;;;;;4961971;28;20269;-84
2021/09/10 05:26:42;;;;;;;25.70;22.57;;;;;;;;;;4968219;28;20253;-84
2021/09/10 05:29:07;;;;;;;25.47;22.77;;;;;;;;;;4961571;28;20202;-84
2021/09/10 05:31:32;;;;;;;23.47;20.97;;;;;;;;;;4968960;28;20185;-84
2021/09/10 05:33:57;;;;;;;26.80;22.87;;;;;;;;;;4961990;28;20672;-84
2021/09/10 05:36:23;;;;;;;25.60;22.90;;;;;;;;;;4960463;28;20178;-84
2021/09/10 05:38:48;;;;;;;25.97;23.17;;;;;;;;;;4967341;28;20198;-85
2021/09/10 05:41:13;;;;;;;24.43;21.93;;;;;;;;;;4960396;28;20274;-84
2021/09/10 05:43:39;;;;;;;26.13;23.33;;;;;;;;;;4969258;28;20668;-84
2021/09/10 05:46:04;;;;;;;25.80;23.00;;;;;;;;;;4967684;28;20210;-84
2021/09/10 05:48:29;;;;;;;28.33;23.30;;;;;;;;;;4965738;28;20631;-84
2021/09/10 05:50:55;;;;;;;24.77;22.23;;;;;;;;;;4961086;28;20319;-83
2021/09/10 05:53:20;;;;;;;26.23;22.47;;;;;;;;;;4962502;28;20185;-83
2021/09/10 05:55:45;;;;;;;25.20;21.60;;;;;;;;;;4961776;28;20643;-84
2021/09/10 05:58:10;;;;;;;24.93;22.30;;;;;;;;;;4961487;28;20206;-84
2021/09/10 06:00:36;;;;;;;25.03;22.10;;;;;;;;;;4960993;28;20187;-84
2021/09/10 06:03:02;;;;;;;27.90;22.93;;;;;;;;;;4961711;28;20197;-84
2021/09/10 06:05:27;;;;;;;25.20;21.50;;;;;;;;;;4960086;28;20209;-84
2021/09/10 06:07:53;;;;;;;23.17;20.83;;;;;;;;;;4960894;28;20446;-85
2021/09/10 06:10:18;;;;;;;25.43;20.87;;;;;;;;;;4960772;28;20206;-85
2021/09/10 06:12:47;;;;;;;26.33;22.00;;;;;;;;;;4961781;28;20296;-85
2021/09/10 06:15:13;;;;;;;26.90;21.27;;;;;;;;;;4960751;28;20268;-85
2021/09/10 06:17:39;;;;;;;24.30;21.93;;;;;;;;;;4960943;28;20561;-85
2021/09/10 06:20:05;;;;;;;22.70;20.33;;;;;;;;;;4961824;28;20631;-85
2021/09/10 06:22:31;;;;;;;25.80;22.77;;;;;;;;;;4967797;28;20203;-85
2021/09/10 06:24:57;;;;;;;23.27;20.83;;;;;;;;;;4959506;28;20682;-85
2021/09/10 06:27:22;;;;;;;21.87;19.67;;;;;;;;;;4960121;28;20451;-84
2021/09/10 06:29:47;;;;;;;23.70;21.13;;;;;;;;;;4962070;28;20178;-84
2021/09/10 06:32:12;;;;;;;24.10;21.50;;;;;;;;;;4967122;28;20190;-85
2021/09/10 06:34:37;;;;;;;25.07;22.20;;;;;;;;;;4962955;28;20662;-84
2021/09/10 06:37:03;;;;;;;24.67;21.27;;;;;;;;;;4962405;28;20670;-84
2021/09/10 06:39:28;;;;;;;24.87;22.27;;;;;;;;;;4961226;28;20178;-84
2021/09/10 06:41:56;;;;;;;22.90;20.60;;;;;;;;;;4959600;28;20189;-84
2021/09/10 06:44:21;;;;;;;23.00;20.50;;;;;;;;;;4960055;28;20296;-84
2021/09/10 06:46:46;;;;;;;24.43;21.83;;;;;;;;;;4965829;28;20478;-84
2021/09/10 06:49:12;;;;;;;23.37;20.80;;;;;;;;;;4965388;28;20178;-85
2021/09/10 06:51:37;;;;;;;24.50;21.90;;;;;;;;;;4960362;28;21032;-85
2021/09/10 06:54:02;;;;;;;23.93;21.33;;;;;;;;;;4959740;28;20220;-85
2021/09/10 06:56:27;;;;;;;26.80;21.70;;;;;;;;;;4960066;28;20187;-85
2021/09/10 06:58:52;;;;;;;25.77;22.70;;;;;;;;;;4961191;28;20313;-77
2021/09/10 07:01:18;;;;;;;23.70;21.40;;;;;;;;;;4959635;28;20592;-79
2021/09/10 07:03:45;;;;;;;24.53;21.57;;;;;;;;;;4960141;28;20178;-78
2021/09/10 07:06:10;;;;;;;25.07;22.50;;;;;;;;;;4956108;28;20198;-80
2021/09/10 07:08:35;;;;;;;24.20;21.60;;;;;;;;;;4957606;28;20587;-80
2021/09/10 07:11:01;;;;;;;26.43;22.73;;;;;;;;;;4955909;28;20221;-78
2021/09/10 07:13:27;;;;;;;24.57;21.90;;;;;;;;;;4960336;28;20191;-78
2021/09/10 07:15:53;;;;;;;27.33;24.50;;;;;;;;;;4960711;28;20504;-79
2021/09/10 07:18:20;;;;;;;25.90;23.10;;;;;;;;;;4959139;28;20462;-79
2021/09/10 07:20:45;;;;;;;25.97;22.13;;;;;;;;;;4960172;28;20195;-82
2021/09/10 07:23:10;;;;;;;26.07;23.47;;;;;;;;;;4960264;28;20446;-80
2021/09/10 07:25:36;;;;;;;27.30;23.43;;;;;;;;;;4958512;28;20199;-79
2021/09/10 07:28:01;;;;;;;25.80;23.10;;;;;;;;;;4958158;28;20269;-80
2021/09/10 07:30:26;;;;;;;25.93;23.30;;;;;;;;;;4964073;28;20171;-80
2021/09/10 07:32:51;;;;;;;24.23;21.63;;;;;;;;;;4959784;28;20222;-81
2021/09/10 07:35:17;;;;;;;25.23;19.73;;;;;;;;;;4959289;28;20199;-81
2021/09/10 07:37:46;;;;;;;22.57;20.27;;;;;;;;;;4960295;28;20588;-79
2021/09/10 07:40:14;;;;;;;23.57;21.13;;;;;;;;;;4966017;28;20182;-80
2021/09/10 07:42:40;;;;;;;21.33;19.13;;;;;;;;;;4962205;28;20438;-79
2021/09/10 07:45:06;;;;;;;20.60;18.47;;;;;;;;;;4960109;28;20465;-82
2021/09/10 07:47:31;;;;;;;20.07;18.07;;;;;;;;;;4965246;28;20443;-81
2021/09/10 07:49:57;;;;;;;20.70;17.30;;;;;;;;;;4959545;28;20185;-79
2021/09/10 07:52:22;;;;;;;18.43;16.20;;;;;;;;;;4959473;28;20191;-80
2021/09/10 07:54:47;;;;;;;17.37;15.07;;;;;;;;;;4962503;28;20182;-81
2021/09/10 07:57:12;;;;;;;18.27;16.37;;;;;;;;;;4960043;28;20681;-79
2021/09/10 07:59:38;;;;;;;15.80;14.30;;;;;;;;;;4959648;28;20241;-80
2021/09/10 08:02:03;;;;;;;18.00;16.23;;;;;;;;;;4960110;28;20192;-80
2021/09/10 08:04:28;;;;;;;17.73;15.83;;;;;;;;;;4962203;28;20647;-80
2021/09/10 08:06:54;;;;;;;19.33;16.63;;;;;;;;;;4958631;28;20179;-80
2021/09/10 08:09:19;;;;;;;16.43;14.73;;;;;;;;;;4968135;28;20201;-81
2021/09/10 08:11:44;;;;;;;17.23;15.43;;;;;;;;;;4961065;28;20190;-83
2021/09/10 08:14:10;;;;;;;16.43;14.80;;;;;;;;;;4961580;28;20347;-81
2021/09/10 08:16:35;;;;;;;16.67;15.00;;;;;;;;;;4960629;28;21112;-80
2021/09/10 08:19:01;;;;;;;17.10;15.37;;;;;;;;;;4959651;28;20229;-81
2021/09/10 08:21:26;;;;;;;17.53;15.80;;;;;;;;;;4969045;28;20742;-82
2021/09/10 08:23:51;;;;;;;18.13;16.33;;;;;;;;;;4962439;28;20210;-81
2021/09/10 08:26:16;;;;;;;16.30;14.57;;;;;;;;;;4965596;28;20640;-79
2021/09/10 08:28:42;;;;;;;16.90;15.10;;;;;;;;;;4960384;28;20249;-79
2021/09/10 08:31:07;;;;;;;18.70;14.80;;;;;;;;;;4962530;28;20179;-78
2021/09/10 08:33:32;;;;;;;18.93;16.37;;;;;;;;;;4960027;28;20179;-79
2021/09/10 08:35:58;;;;;;;19.43;17.33;;;;;;;;;;4959216;28;20245;-80
2021/09/10 08:38:23;;;;;;;20.97;18.73;;;;;;;;;;4960633;28;20210;-83
2021/09/10 08:40:51;;;;;;;20.50;18.20;;;;;;;;;;4967062;28;20183;-83
2021/09/10 08:43:18;;;;;;;27.33;19.27;;;;;;;;;;4958927;28;20194;-83
2021/09/10 08:45:43;;;;;;;24.03;21.40;;;;;;;;;;4963180;28;20461;-85
2021/09/10 08:48:09;;;;;;;22.77;19.57;;;;;;;;;;4960443;28;20449;-84
2021/09/10 08:50:34;;;;;;;21.77;19.67;;;;;;;;;;4963884;28;20287;-84
2021/09/10 08:53:00;;;;;;;21.17;18.97;;;;;;;;;;4962245;28;20445;-83
2021/09/10 08:55:25;;;;;;;21.70;19.33;;;;;;;;;;4959605;28;20888;-85
2021/09/10 08:57:51;;;;;;;22.90;20.60;;;;;;;;;;4959480;28;25205;-83
2021/09/10 09:00:18;;;;;;;24.07;21.47;;;;;;;;;;4965110;28;20182;-82
2021/09/10 09:03:03;;;;;;;22.67;20.40;;;;;;;;;;4958996;28;20441;-84
2021/09/10 09:05:29;;;;;;;22.43;19.50;;;;;;;;;;4957596;28;20532;-84
2021/09/10 09:08:12;;;;;;;25.27;21.17;;;;;;;;;;4966211;28;20970;-78
2021/09/10 09:10:49;;;;;;;20.87;18.80;;;;;;;;;;4962716;28;20178;-80
2021/09/10 09:13:14;;;;;;;22.33;19.83;;;;;;;;;;4959894;28;20431;-79
2021/09/10 09:15:42;;;;;;;21.23;19.03;;;;;;;;;;4957636;28;20435;-80
2021/09/10 09:18:07;;;;;;;22.90;20.40;;;;;;;;;;4961019;28;20567;-80
2021/09/10 09:20:32;;;;;;;22.40;20.03;;;;;;;;;;4959572;28;20557;-80
2021/09/10 09:23:05;;;;;;;25.80;23.07;;;;;;;;;;4958350;28;20285;-80
2021/09/10 09:25:33;;;;;;;27.70;24.80;;;;;;;;;;4958629;28;20198;-80
2021/09/10 09:28:17;;;;;;;29.43;25.63;;;;;;;;;;4958216;28;20492;-80
2021/09/10 09:30:43;;;;;;;31.83;28.43;;;;;;;;;;4956199;28;20492;-79
2021/09/10 09:33:11;;;;;;;36.60;31.43;;;;;;;;;;4961382;28;20422;-80
2021/09/10 09:35:36;;;;;;;34.27;29.70;;;;;;;;;;4959092;28;20175;-79
2021/09/10 09:38:10;;;;;;;35.73;31.60;;;;;;;;;;4957799;28;20510;-79
2021/09/10 09:40:35;;;;;;;43.70;34.00;;;;;;;;;;4961558;28;20182;-80
2021/09/10 09:43:11;;;;;;;42.93;31.20;;;;;;;;;;4956929;28;20816;-79
2021/09/10 09:45:37;;;;;;;37.17;32.07;;;;;;;;;;4957249;28;20221;-77
2021/09/10 09:48:07;;;;;;;36.07;30.80;;;;;;;;;;4959575;28;20490;-77
2021/09/10 09:50:32;;;;;;;33.30;26.90;;;;;;;;;;4959104;28;22805;-77
2021/09/10 09:52:57;;;;;;;39.20;31.93;;;;;;;;;;4960120;28;20434;-77
2021/09/10 09:55:24;;;;;;;41.60;33.30;;;;;;;;;;4960283;28;20238;-77
2021/09/10 09:57:50;;;;;;;42.37;33.27;;;;;;;;;;4960178;28;20217;-78
2021/09/10 10:00:15;;;;;;;37.57;30.17;;;;;;;;;;4956602;28;20943;-77
2021/09/10 10:02:40;;;;;;;33.47;29.87;;;;;;;;;;4963616;28;20481;-77
2021/09/10 10:05:07;;;;;;;35.57;31.13;;;;;;;;;;4957736;28;20207;-78
2021/09/10 10:07:42;;;;;;;33.40;27.37;;;;;;;;;;4957189;28;20218;-78
2021/09/10 10:10:10;;;;;;;33.60;28.30;;;;;;;;;;4960683;28;20430;-79
2021/09/10 10:12:35;;;;;;;37.07;30.70;;;;;;;;;;4960134;28;20438;-78
2021/09/10 10:15:20;;;;;;;29.73;26.63;;;;;;;;;;4960383;28;20435;-79
2021/09/10 10:17:45;;;;;;;34.03;28.60;;;;;;;;;;4957718;28;20198;-78
2021/09/10 10:20:14;;;;;;;35.00;30.63;;;;;;;;;;4961318;28;20784;-78
2021/09/10 10:22:40;;;;;;;32.60;28.70;;;;;;;;;;4957856;28;20202;-78
2021/09/10 10:25:06;;;;;;;30.20;27.00;;;;;;;;;;4958383;28;20453;-78
2021/09/10 10:27:39;;;;;;;33.57;29.07;;;;;;;;;;4957400;28;20219;-78
2021/09/10 10:30:07;;;;;;;29.90;26.80;;;;;;;;;;4957594;28;20985;-77
2021/09/10 10:32:35;;;;;;;27.87;24.87;;;;;;;;;;4956125;28;20444;-77
2021/09/10 10:35:19;;;;;;;29.40;26.33;;;;;;;;;;4959917;28;20822;-76
2021/09/10 10:37:45;;;;;;;29.23;25.03;;;;;;;;;;4960130;28;20461;-76
2021/09/10 10:40:29;;;;;;;29.07;25.97;;;;;;;;;;4957302;28;21000;-77
2021/09/10 10:42:54;;;;;;;32.73;27.13;;;;;;;;;;4959063;28;20441;-76
2021/09/10 10:45:41;;;;;;;29.13;26.13;;;;;;;;;;4960498;28;20625;-78
2021/09/10 10:48:25;;;;;;;30.80;27.20;;;;;;;;;;4956021;28;20202;-77
2021/09/10 10:50:50;;;;;;;31.07;27.50;;;;;;;;;;4958921;28;20435;-78
2021/09/10 10:53:15;;;;;;;30.57;27.27;;;;;;;;;;4961223;28;20876;-77
2021/09/10 10:55:40;;;;;;;33.97;25.03;;;;;;;;;;4957258;28;20627;-79
2021/09/10 10:58:25;;;;;;;35.90;28.03;;;;;;;;;;4961110;28;20757;-83
2021/09/10 11:01:01;;;;;;;38.90;29.17;;;;;;;;;;4956548;28;20214;-86
2021/09/10 11:03:26;;;;;;;31.40;28.07;;;;;;;;;;4965370;28;20954;-83
2021/09/10 11:05:54;;;;;;;31.47;28.10;;;;;;;;;;4960166;28;20476;-77
2021/09/10 11:08:35;;;;;;;34.33;30.63;;;;;;;;;;4957947;28;20223;-76
2021/09/10 11:11:00;;;;;;;32.43;28.10;;;;;;;;;;4957619;28;20429;-76
2021/09/10 11:13:27;;;;;;;35.33;27.97;;;;;;;;;;4958303;28;20433;-77
2021/09/10 11:15:52;;;;;;;29.83;26.17;;;;;;;;;;4958894;28;20183;-78
2021/09/10 11:18:17;;;;;;;27.70;24.90;;;;;;;;;;4959507;28;20886;-77
2021/09/10 11:20:45;;;;;;;31.37;27.50;;;;;;;;;;4959874;28;20182;-77
2021/09/10 11:23:12;;;;;;;36.90;29.20;;;;;;;;;;4964055;28;20194;-77
2021/09/10 11:25:44;;;;;;;32.47;28.40;;;;;;;;;;4964039;28;20489;-77
2021/09/10 11:28:10;;;;;;;28.20;25.20;;;;;;;;;;4960681;28;20461;-78
2021/09/10 11:30:35;;;;;;;30.27;26.97;;;;;;;;;;4957765;28;20931;-76
2021/09/10 11:33:01;;;;;;;31.67;28.33;;;;;;;;;;4960884;28;20175;-77
2021/09/10 11:35:28;;;;;;;31.97;28.57;;;;;;;;;;4961904;28;20183;-78
2021/09/10 11:38:04;;;;;;;29.50;26.17;;;;;;;;;;4961432;28;20220;-77
2021/09/10 11:40:30;;;;;;;32.23;28.50;;;;;;;;;;4960201;28;20873;-77
2021/09/10 11:43:04;;;;;;;30.90;27.23;;;;;;;;;;4960587;28;20500;-78
2021/09/10 11:45:31;;;;;;;36.47;29.07;;;;;;;;;;4958654;28;20464;-78
2021/09/10 11:47:56;;;;;;;33.17;28.93;;;;;;;;;;4961745;28;20453;-79
2021/09/10 11:50:22;;;;;;;33.97;29.67;;;;;;;;;;4963986;28;20425;-79
2021/09/10 11:52:47;;;;;;;29.97;26.73;;;;;;;;;;4962896;28;20186;-78
2021/09/10 11:55:13;;;;;;;31.13;27.80;;;;;;;;;;4962599;28;20186;-78
2021/09/10 11:57:39;;;;;;;28.03;25.10;;;;;;;;;;4964319;28;20574;-78
2021/09/10 12:00:09;;;;;;;31.43;27.27;;;;;;;;;;4964315;28;20434;-78
2021/09/10 12:02:35;;;;;;;31.13;28.00;;;;;;;;;;4963324;28;20435;-78
2021/09/10 12:05:02;;;;;;;32.03;26.57;;;;;;;;;;4964160;28;20461;-78
2021/09/10 12:07:31;;;;;;;27.67;24.83;;;;;;;;;;4963865;28;20485;-78
2021/09/10 12:09:56;;;;;;;30.80;27.60;;;;;;;;;;4963468;28;20620;-78
2021/09/10 12:12:23;;;;;;;27.13;24.00;;;;;;;;;;4964550;28;20516;-78
2021/09/10 12:14:51;;;;;;;26.47;23.83;;;;;;;;;;4963018;28;20188;-78
2021/09/10 12:17:38;;;;;;;27.03;22.80;;;;;;;;;;4963691;28;20453;-78
2021/09/10 12:20:08;;;;;;;23.60;21.27;;;;;;;;;;4964371;28;20426;-78
2021/09/10 12:22:52;;;;;;;24.13;21.20;;;;;;;;;;4964802;28;20446;-78
2021/09/10 12:25:31;;;;;;;25.37;22.87;;;;;;;;;;4964891;28;20465;-78
2021/09/10 12:28:03;;;;;;;28.50;24.47;;;;;;;;;;4963558;28;20451;-78
2021/09/10 12:30:29;;;;;;;24.90;22.30;;;;;;;;;;4962375;28;20431;-78
2021/09/10 12:32:55;;;;;;;22.23;19.97;;;;;;;;;;4964989;28;20438;-78
2021/09/10 12:35:21;;;;;;;23.17;20.70;;;;;;;;;;4963688;28;20434;-78
2021/09/10 12:37:58;;;;;;;24.27;21.60;;;;;;;;;;4963132;28;20286;-78
2021/09/10 12:40:23;;;;;;;25.47;22.97;;;;;;;;;;4964015;28;20663;-78
2021/09/10 12:42:49;;;;;;;31.30;25.50;;;;;;;;;;4964026;28;20473;-78
2021/09/10 12:45:15;;;;;;;23.73;21.30;;;;;;;;;;4962840;28;20207;-78
2021/09/10 12:47:40;;;;;;;25.27;22.57;;;;;;;;;;4962735;28;20257;-78
2021/09/10 12:50:06;;;;;;;29.30;23.53;;;;;;;;;;4962970;28;22585;-78
2021/09/10 12:52:31;;;;;;;25.00;22.47;;;;;;;;;;4961180;28;20175;-78
2021/09/10 12:54:56;;;;;;;20.43;18.20;;;;;;;;;;4958717;28;20210;-79
2021/09/10 12:57:22;;;;;;;22.60;20.43;;;;;;;;;;4958541;28;20227;-78
2021/09/10 12:59:49;;;;;;;23.57;21.10;;;;;;;;;;4961147;28;20179;-78
2021/09/10 13:02:14;;;;;;;26.27;23.57;;;;;;;;;;4961503;28;20175;-78
2021/09/10 13:04:39;;;;;;;28.07;24.03;;;;;;;;;;4966564;28;20438;-78
2021/09/10 13:07:05;;;;;;;24.70;22.20;;;;;;;;;;4963305;28;20214;-79
2021/09/10 13:09:30;;;;;;;22.33;20.13;;;;;;;;;;4962837;28;20186;-78
2021/09/10 13:11:56;;;;;;;21.00;16.90;;;;;;;;;;4969792;28;20182;-79
2021/09/10 13:14:21;;;;;;;21.53;19.47;;;;;;;;;;4958088;28;20180;-78
2021/09/10 13:16:46;;;;;;;28.30;24.63;;;;;;;;;;4960602;28;20206;-79
2021/09/10 13:19:11;;;;;;;23.67;21.37;;;;;;;;;;4962088;28;20175;-79
2021/09/10 13:21:37;;;;;;;18.27;16.60;;;;;;;;;;4960409;28;20186;-79
2021/09/10 13:24:02;;;;;;;19.90;18.10;;;;;;;;;;4961127;28;20270;-79
2021/09/10 13:26:27;;;;;;;24.67;22.20;;;;;;;;;;4962819;28;20214;-78
2021/09/10 13:28:52;;;;;;;25.03;22.50;;;;;;;;;;4959395;28;20289;-78
2021/09/10 13:31:18;;;;;;;25.80;23.00;;;;;;;;;;4963048;28;20393;-78
2021/09/10 13:33:43;;;;;;;26.07;23.33;;;;;;;;;;4962207;28;20210;-78
2021/09/10 13:36:08;;;;;;;22.37;20.07;;;;;;;;;;4961159;28;20191;-78
2021/09/10 13:38:36;;;;;;;27.20;21.80;;;;;;;;;;4961984;28;20206;-78
2021/09/10 13:41:01;;;;;;;25.87;23.33;;;;;;;;;;4961565;28;20209;-79
2021/09/10 13:43:26;;;;;;;22.53;20.30;;;;;;;;;;4962109;28;20922;-79
2021/09/10 13:45:52;;;;;;;27.53;24.70;;;;;;;;;;4962524;28;20205;-79
2021/09/10 13:48:17;;;;;;;20.90;18.90;;;;;;;;;;4961794;28;20261;-78
2021/09/10 13:50:42;;;;;;;18.70;16.80;;;;;;;;;;4960749;28;20690;-78
2021/09/10 13:53:07;;;;;;;22.27;20.07;;;;;;;;;;4961448;28;20650;-79
2021/09/10 13:55:33;;;;;;;21.03;18.50;;;;;;;;;;4961859;28;20294;-78
2021/09/10 13:57:58;;;;;;;18.37;16.50;;;;;;;;;;4959159;28;20672;-78
2021/09/10 14:00:23;;;;;;;20.30;18.33;;;;;;;;;;4962333;28;20593;-77
2021/09/10 14:02:48;;;;;;;15.67;14.13;;;;;;;;;;4958515;28;20233;-80
2021/09/10 14:05:14;;;;;;;22.93;20.60;;;;;;;;;;4960635;28;20229;-79
2021/09/10 14:07:39;;;;;;;21.67;16.87;;;;;;;;;;4959381;28;20229;-79
2021/09/10 14:10:05;;;;;;;18.63;15.87;;;;;;;;;;4957089;28;20257;-79
2021/09/10 14:12:30;;;;;;;15.50;14.00;;;;;;;;;;4958724;28;20193;-79